Time;durP1;ratioP1;P1;durP2;ratioP2;P2;SDS_P1;SDS_P2;PMS_P1;PMS_P2;Temp;Humidity;BMP_temperature;BMP_pressure;BME280_temperature;BME280_humidity;BME280_pressure;Samples;Min_cycle;Max_cycle;Signal;HPM_P1;HPM_P2
2021/12/31 00:00:46;;;;;;;0.83;0.63;;;26.10;51.20;;;;;;4120529;28;20044;-49
2021/12/31 00:02:48;;;;;;;5.57;0.90;;;26.10;51.10;;;;;;4120215;28;20495;-54
2021/12/31 00:04:50;;;;;;;0.65;0.55;;;26.10;51.10;;;;;;4130040;28;20103;-54
2021/12/31 00:06:52;;;;;;;1.85;0.82;;;26.20;50.40;;;;;;4126547;28;20054;-50
2021/12/31 00:08:54;;;;;;;2.10;0.63;;;26.20;49.80;;;;;;4117557;28;20730;-51
2021/12/31 00:10:59;;;;;;;1.20;0.52;;;26.20;49.10;;;;;;4124128;28;20083;-53
2021/12/31 00:13:01;;;;;;;3.33;1.00;;;26.20;48.60;;;;;;4128142;28;20061;-54
2021/12/31 00:15:04;;;;;;;3.08;0.98;;;26.10;48.40;;;;;;4103445;28;20076;-52
2021/12/31 00:17:07;;;;;;;1.70;0.70;;;26.10;49.00;;;;;;4117831;28;20163;-52
2021/12/31 00:19:11;;;;;;;1.13;0.50;;;26.20;49.40;;;;;;4128715;28;20030;-57
2021/12/31 00:21:13;;;;;;;3.33;0.80;;;26.20;49.50;;;;;;4121252;28;20696;-55
2021/12/31 00:23:17;;;;;;;1.70;0.75;;;26.20;49.10;;;;;;4117238;28;20053;-55
2021/12/31 00:25:20;;;;;;;1.15;0.93;;;26.30;48.80;;;;;;4120948;28;20163;-52
2021/12/31 00:27:22;;;;;;;2.47;1.77;;;26.30;49.20;;;;;;4112630;28;20050;-49
2021/12/31 00:29:24;;;;;;;1.70;1.10;;;26.30;49.30;;;;;;4100878;28;20053;-55
2021/12/31 00:31:26;;;;;;;1.20;0.60;;;26.30;48.90;;;;;;4120707;28;20045;-50
2021/12/31 00:33:28;;;;;;;4.40;0.80;;;26.40;48.40;;;;;;4128923;28;20056;-52
2021/12/31 00:35:33;;;;;;;1.00;0.60;;;26.40;48.70;;;;;;4120603;28;20341;-56
2021/12/31 00:37:36;;;;;;;1.35;0.50;;;26.40;48.90;;;;;;4118200;28;20092;-51
2021/12/31 00:39:39;;;;;;;0.95;0.60;;;26.40;48.40;;;;;;4125300;28;20408;-57
2021/12/31 00:41:42;;;;;;;1.20;0.65;;;26.40;47.80;;;;;;4111871;28;20217;-53
2021/12/31 00:43:44;;;;;;;2.33;0.50;;;26.40;48.00;;;;;;4103514;28;20061;-53
2021/12/31 00:45:46;;;;;;;2.60;0.85;;;26.50;48.10;;;;;;4118945;28;20049;-56
2021/12/31 00:47:49;;;;;;;0.93;0.60;;;26.50;48.30;;;;;;4129121;28;20075;-52
2021/12/31 00:49:51;;;;;;;0.57;0.50;;;26.50;48.50;;;;;;4121207;28;20068;-52
2021/12/31 00:51:53;;;;;;;2.50;0.73;;;26.60;48.60;;;;;;4119878;28;20571;-51
2021/12/31 00:53:56;;;;;;;1.60;0.80;;;26.60;48.30;;;;;;4128956;28;20402;-51
2021/12/31 00:55:57;;;;;;;;;;;26.60;48.80;;;;;;4125605;28;21202;-55
2021/12/31 00:58:00;;;;;;;1.88;0.52;;;26.60;48.80;;;;;;4121854;28;20040;-52
2021/12/31 01:02:12;;;;;;;1.02;0.50;;;26.60;48.50;;;;;;4149627;27;20555;-56
2021/12/31 01:04:14;;;;;;;2.00;0.60;;;26.70;49.00;;;;;;4155870;28;20982;-49
2021/12/31 01:06:16;;;;;;;0.85;0.50;;;26.80;48.50;;;;;;4159746;28;20526;-51
2021/12/31 01:08:19;;;;;;;0.50;0.40;;;26.80;48.50;;;;;;4163930;28;20803;-56
2021/12/31 01:10:24;;;;;;;0.50;0.43;;;26.80;48.60;;;;;;4163230;28;20060;-53
2021/12/31 01:12:26;;;;;;;1.85;0.80;;;26.90;48.80;;;;;;4159753;28;20052;-53
2021/12/31 01:14:42;;;;;;;2.23;1.20;;;26.90;49.70;;;;;;4159225;28;20071;-54
2021/12/31 01:16:49;;;;;;;2.05;0.98;;;26.90;49.90;;;;;;4158125;28;20307;-52
2021/12/31 01:20:54;;;;;;;1.60;0.67;;;27.00;50.10;;;;;;4171038;28;21274;-52
2021/12/31 01:22:56;;;;;;;1.70;0.80;;;27.00;50.50;;;;;;4160056;28;20056;-51
2021/12/31 01:24:59;;;;;;;2.20;0.80;;;27.00;50.30;;;;;;4156567;28;20056;-52
2021/12/31 01:27:01;;;;;;;2.78;0.80;;;27.10;50.40;;;;;;4154630;28;20552;-56
2021/12/31 01:29:03;;;;;;;1.13;0.47;;;27.10;50.50;;;;;;4141805;28;22109;-55
2021/12/31 01:31:06;;;;;;;1.90;1.02;;;27.20;50.50;;;;;;4141026;28;20134;-56
2021/12/31 01:33:08;;;;;;;2.65;0.65;;;27.20;50.80;;;;;;4138055;28;21119;-57
2021/12/31 01:35:11;;;;;;;3.03;0.90;;;27.10;51.20;;;;;;4148630;28;21694;-55
2021/12/31 01:37:13;;;;;;;1.80;1.00;;;27.20;51.20;;;;;;4141545;28;20610;-52
2021/12/31 01:39:15;;;;;;;1.63;0.93;;;27.20;51.20;;;;;;4124007;28;20044;-56
2021/12/31 01:41:19;;;;;;;2.10;0.88;;;27.30;51.30;;;;;;4147782;28;20065;-56
2021/12/31 01:43:22;;;;;;;2.63;0.80;;;27.30;51.30;;;;;;4139270;28;21070;-54
2021/12/31 01:45:28;;;;;;;0.98;0.70;;;27.30;51.30;;;;;;4141841;28;20106;-50
2021/12/31 01:47:36;;;;;;;1.23;0.60;;;27.30;51.50;;;;;;4125494;28;20057;-53
2021/12/31 01:49:41;;;;;;;0.73;0.60;;;27.40;51.50;;;;;;4146785;28;20052;-56
2021/12/31 01:51:43;;;;;;;1.35;0.75;;;27.40;51.50;;;;;;4149958;28;20587;-55
2021/12/31 01:53:45;;;;;;;1.60;1.02;;;27.40;51.70;;;;;;4139974;28;21312;-55
2021/12/31 01:55:49;;;;;;;2.53;0.90;;;27.40;51.80;;;;;;4140393;28;20055;-55
2021/12/31 01:57:54;;;;;;;2.53;0.90;;;27.50;51.60;;;;;;4149519;28;20057;-55
2021/12/31 01:59:56;;;;;;;1.17;0.50;;;27.50;51.70;;;;;;4145561;28;20078;-52
2021/12/31 02:01:58;;;;;;;3.97;1.00;;;27.50;52.30;;;;;;4141123;28;20073;-56
2021/12/31 02:04:00;;;;;;;1.15;0.57;;;27.60;52.00;;;;;;4145831;28;20076;-56
2021/12/31 02:06:04;;;;;;;1.63;0.63;;;27.60;52.00;;;;;;4145333;28;20210;-55
2021/12/31 02:08:05;;;;;;;;;;;27.60;51.70;;;;;;4141765;28;20048;-55
2021/12/31 02:10:09;;;;;;;1.58;0.70;;;27.60;51.60;;;;;;4174899;28;20385;-52
2021/12/31 02:12:11;;;;;;;2.33;0.95;;;27.70;52.00;;;;;;4145310;28;20637;-57
2021/12/31 02:14:13;;;;;;;1.27;0.77;;;27.70;52.00;;;;;;4130395;28;20705;-56
2021/12/31 02:16:15;;;;;;;3.50;0.90;;;27.70;52.10;;;;;;4133517;28;20838;-51
2021/12/31 02:18:18;;;;;;;2.00;0.70;;;27.80;52.10;;;;;;4139150;28;20072;-52
2021/12/31 02:20:21;;;;;;;2.33;0.85;;;27.80;52.30;;;;;;4133239;28;20386;-53
2021/12/31 02:22:27;;;;;;;;;;;27.90;52.40;;;;;;4134851;28;20056;-56
2021/12/31 02:24:29;;;;;;;3.83;1.17;;;27.90;52.50;;;;;;4133903;28;20055;-55
2021/12/31 02:26:31;;;;;;;3.67;1.33;;;27.90;52.40;;;;;;4125628;28;20511;-54
2021/12/31 02:28:33;;;;;;;1.98;0.80;;;27.90;52.20;;;;;;4134411;28;20444;-57
2021/12/31 02:30:35;;;;;;;2.47;0.73;;;27.90;51.70;;;;;;4133343;28;20079;-56
2021/12/31 02:32:38;;;;;;;3.97;0.77;;;28.00;51.70;;;;;;4139814;28;20141;-55
2021/12/31 02:34:40;;;;;;;;;;;28.00;51.50;;;;;;4140613;28;20286;-54
2021/12/31 02:36:42;;;;;;;2.97;0.80;;;28.00;51.60;;;;;;4166418;28;19924;-57
2021/12/31 02:38:44;;;;;;;0.50;0.45;;;28.00;51.40;;;;;;4140110;28;20073;-59
2021/12/31 02:40:47;;;;;;;1.13;0.60;;;28.00;51.20;;;;;;4120061;28;20606;-54
2021/12/31 02:42:49;;;;;;;1.23;0.77;;;28.10;51.20;;;;;;4131921;28;20115;-57
2021/12/31 02:44:54;;;;;;;1.75;0.70;;;28.10;51.10;;;;;;4131498;28;20131;-57
2021/12/31 02:46:56;;;;;;;1.92;0.70;;;28.10;50.90;;;;;;4140031;28;20902;-54
2021/12/31 02:48:58;;;;;;;0.87;0.57;;;28.10;51.10;;;;;;4131320;28;21352;-51
2021/12/31 02:51:01;;;;;;;0.70;0.60;;;28.10;50.10;;;;;;4133521;28;20095;-56
2021/12/31 02:53:12;;;;;;;0.85;0.47;;;28.20;49.60;;;;;;4141422;28;20507;-58
2021/12/31 02:55:16;;;;;;;1.52;0.50;;;28.20;49.70;;;;;;4141487;28;20048;-56
2021/12/31 02:57:20;;;;;;;1.48;0.70;;;28.20;49.70;;;;;;4139859;28;20044;-55
2021/12/31 02:59:22;;;;;;;2.63;0.80;;;28.20;50.30;;;;;;4136083;28;20174;-53
2021/12/31 03:01:24;;;;;;;1.57;0.80;;;28.30;49.80;;;;;;4123966;28;20107;-57
2021/12/31 03:03:28;;;;;;;1.27;0.68;;;28.30;49.60;;;;;;4140305;28;20309;-51
2021/12/31 03:05:31;;;;;;;2.35;0.57;;;28.30;49.10;;;;;;4131885;28;20049;-55
2021/12/31 03:07:36;;;;;;;2.70;0.60;;;28.30;49.20;;;;;;4142944;28;20048;-55
2021/12/31 03:09:45;;;;;;;3.00;0.95;;;28.40;48.90;;;;;;4127660;28;20135;-56
2021/12/31 03:11:47;;;;;;;1.90;0.60;;;28.30;49.10;;;;;;4129095;28;20457;-57
2021/12/31 03:13:55;;;;;;;1.33;0.57;;;28.40;49.10;;;;;;4136277;28;20048;-56
2021/12/31 03:15:59;;;;;;;0.85;0.55;;;28.40;49.50;;;;;;4135430;28;20867;-56
2021/12/31 03:18:03;;;;;;;1.67;0.45;;;28.40;49.20;;;;;;4127893;28;20167;-59
2021/12/31 03:20:14;;;;;;;2.03;0.60;;;28.40;49.10;;;;;;4130754;28;20045;-54
2021/12/31 03:22:17;;;;;;;3.53;0.60;;;28.50;49.20;;;;;;4129709;28;20056;-57
2021/12/31 03:24:19;;;;;;;;;;;28.50;49.60;;;;;;4126318;28;20075;-53
2021/12/31 03:26:22;;;;;;;1.45;1.00;;;28.50;49.50;;;;;;4170837;28;20360;-57
2021/12/31 03:28:23;;;;;;;;;;;28.50;48.40;;;;;;4126737;28;20064;-53
2021/12/31 03:30:26;;;;;;;1.17;0.63;;;28.50;49.00;;;;;;4127020;28;19929;-55
2021/12/31 03:32:28;;;;;;;1.77;0.80;;;28.50;49.00;;;;;;4131514;28;20049;-56
2021/12/31 03:34:30;;;;;;;2.73;0.70;;;28.60;49.30;;;;;;4136496;28;20057;-53
2021/12/31 03:36:32;;;;;;;1.17;0.70;;;28.60;49.40;;;;;;4126667;28;20449;-53
2021/12/31 03:38:34;;;;;;;2.57;0.70;;;28.60;49.00;;;;;;4125365;28;20054;-56
2021/12/31 03:40:36;;;;;;;1.38;0.50;;;28.70;49.20;;;;;;4132760;28;20049;-58
2021/12/31 03:42:40;;;;;;;1.77;0.75;;;28.70;49.30;;;;;;4134515;28;21591;-56
2021/12/31 03:44:43;;;;;;;2.78;0.80;;;28.70;49.40;;;;;;4156138;28;20751;-54
2021/12/31 03:46:45;;;;;;;1.23;0.80;;;28.70;49.60;;;;;;4124793;28;20061;-51
2021/12/31 03:48:47;;;;;;;1.38;0.60;;;28.80;49.40;;;;;;4132576;28;20045;-58
2021/12/31 03:50:50;;;;;;;1.27;0.60;;;28.80;49.40;;;;;;4135887;28;20049;-57
2021/12/31 03:52:52;;;;;;;1.05;0.60;;;28.80;49.00;;;;;;4128436;28;20320;-57
2021/12/31 03:54:54;;;;;;;1.63;0.50;;;28.80;48.60;;;;;;4129068;28;20084;-55
2021/12/31 03:56:56;;;;;;;1.83;0.60;;;28.90;48.60;;;;;;4135328;28;21053;-55
2021/12/31 03:59:01;;;;;;;1.65;0.88;;;28.90;48.80;;;;;;4134156;28;20055;-55
2021/12/31 04:01:04;;;;;;;0.88;0.60;;;28.90;49.00;;;;;;4127847;28;20056;-56
2021/12/31 04:03:11;;;;;;;1.08;0.47;;;28.90;49.30;;;;;;4127240;28;20073;-57
2021/12/31 04:05:13;;;;;;;1.83;0.60;;;29.00;49.10;;;;;;4130098;28;20037;-54
2021/12/31 04:07:15;;;;;;;1.23;0.60;;;29.00;48.90;;;;;;4139070;28;20045;-54
2021/12/31 04:09:18;;;;;;;1.65;0.70;;;29.00;48.80;;;;;;4131405;28;20568;-54
2021/12/31 04:11:20;;;;;;;0.98;0.60;;;29.00;49.00;;;;;;4128551;28;20242;-54
2021/12/31 04:13:22;;;;;;;2.28;0.70;;;29.10;48.90;;;;;;4131487;28;20077;-58
2021/12/31 04:15:25;;;;;;;1.00;0.60;;;29.10;49.10;;;;;;4137879;28;20130;-55
2021/12/31 04:17:27;;;;;;;1.27;0.40;;;29.10;49.00;;;;;;4131364;28;20178;-58
2021/12/31 04:19:30;;;;;;;1.53;0.60;;;29.10;48.90;;;;;;4129815;28;20080;-56
2021/12/31 04:21:33;;;;;;;0.45;0.35;;;29.20;49.40;;;;;;4128997;28;20049;-58
2021/12/31 04:23:48;;;;;;;1.50;0.60;;;29.20;49.40;;;;;;4137933;28;20133;-57
2021/12/31 04:25:51;;;;;;;2.33;0.68;;;29.20;49.60;;;;;;4134192;28;20644;-56
2021/12/31 04:27:53;;;;;;;2.13;0.73;;;29.30;49.80;;;;;;4134253;28;20162;-58
2021/12/31 04:29:55;;;;;;;2.13;0.53;;;29.30;50.00;;;;;;4129183;28;20330;-56
2021/12/31 04:31:57;;;;;;;2.30;0.80;;;29.30;50.00;;;;;;4128978;28;20308;-56
2021/12/31 04:34:04;;;;;;;2.83;0.80;;;29.40;50.00;;;;;;4131766;28;20052;-57
2021/12/31 04:36:06;;;;;;;2.70;0.82;;;29.40;50.00;;;;;;4135885;28;20059;-56
2021/12/31 04:38:08;;;;;;;1.40;0.90;;;29.50;50.20;;;;;;4129219;28;20083;-54
2021/12/31 04:40:11;;;;;;;2.55;1.15;;;29.50;50.30;;;;;;4129712;28;20076;-57
2021/12/31 04:42:13;;;;;;;1.23;0.70;;;29.60;50.50;;;;;;4133679;28;20145;-58
2021/12/31 04:44:16;;;;;;;1.50;0.60;;;29.60;50.20;;;;;;4138861;28;20146;-57
2021/12/31 04:46:18;;;;;;;3.03;0.77;;;29.60;50.20;;;;;;4130976;28;21725;-56
2021/12/31 04:48:20;;;;;;;1.53;0.60;;;29.60;50.10;;;;;;4129187;28;20045;-55
2021/12/31 04:50:22;;;;;;;1.33;0.70;;;29.70;50.00;;;;;;4134919;28;20076;-55
2021/12/31 04:52:24;;;;;;;1.23;0.73;;;29.70;50.20;;;;;;4137120;28;20170;-56
2021/12/31 04:54:27;;;;;;;2.20;0.60;;;29.80;49.90;;;;;;4128572;28;20451;-52
2021/12/31 04:56:29;;;;;;;3.95;0.90;;;29.80;49.90;;;;;;4130495;28;20033;-57
2021/12/31 04:58:31;;;;;;;1.83;0.60;;;29.90;50.00;;;;;;4136665;28;20059;-57
2021/12/31 05:00:33;;;;;;;1.17;0.63;;;30.00;50.20;;;;;;4135411;28;21119;-51
2021/12/31 05:02:36;;;;;;;3.15;0.88;;;30.00;50.20;;;;;;4126481;28;20056;-57
2021/12/31 05:04:38;;;;;;;3.17;0.95;;;30.00;50.30;;;;;;4130765;28;20052;-52
2021/12/31 05:06:40;;;;;;;2.43;0.70;;;30.10;50.10;;;;;;4134889;28;21494;-55
2021/12/31 05:08:43;;;;;;;2.13;0.75;;;30.10;50.00;;;;;;4133126;28;20139;-55
2021/12/31 05:10:45;;;;;;;1.92;0.90;;;30.10;49.70;;;;;;4128917;28;20052;-52
2021/12/31 05:12:52;;;;;;;1.57;0.80;;;30.20;49.60;;;;;;4132991;28;20120;-57
2021/12/31 05:14:55;;;;;;;2.15;0.90;;;30.30;49.50;;;;;;4134182;28;20325;-57
2021/12/31 05:16:58;;;;;;;4.57;0.95;;;30.30;49.40;;;;;;4136460;28;20170;-55
2021/12/31 05:19:00;;;;;;;4.30;0.70;;;30.40;49.40;;;;;;4128480;28;20504;-56
2021/12/31 05:21:02;;;;;;;3.30;1.73;;;30.40;49.20;;;;;;4129036;28;20049;-57
2021/12/31 05:23:04;;;;;;;2.25;0.98;;;30.50;49.00;;;;;;4135133;28;20040;-58
2021/12/31 05:25:07;;;;;;;2.65;1.23;;;30.50;48.80;;;;;;4134472;28;20624;-56
2021/12/31 05:27:10;;;;;;;4.53;1.00;;;30.60;48.70;;;;;;4127380;28;20144;-57
2021/12/31 05:29:12;;;;;;;2.97;1.17;;;30.60;48.60;;;;;;4123226;28;20056;-57
2021/12/31 05:31:15;;;;;;;2.60;0.70;;;30.70;48.50;;;;;;4134051;28;20064;-55
2021/12/31 05:33:17;;;;;;;2.10;0.82;;;30.70;47.70;;;;;;4129440;28;20103;-54
2021/12/31 05:35:19;;;;;;;3.20;1.13;;;30.80;47.80;;;;;;4125131;28;20053;-55
2021/12/31 05:37:21;;;;;;;2.67;0.80;;;30.80;48.20;;;;;;4125170;28;20133;-57
2021/12/31 05:39:25;;;;;;;1.87;0.80;;;30.90;47.70;;;;;;4131405;28;20133;-58
2021/12/31 05:41:28;;;;;;;2.72;1.23;;;30.90;47.80;;;;;;4134480;28;20326;-56
2021/12/31 05:43:31;;;;;;;2.13;0.73;;;31.00;47.80;;;;;;4127235;28;21034;-56
2021/12/31 05:45:33;;;;;;;2.77;0.80;;;31.00;47.80;;;;;;4124712;28;20118;-55
2021/12/31 05:47:36;;;;;;;1.73;0.90;;;31.10;47.60;;;;;;4129759;28;20322;-57
2021/12/31 05:49:37;;;;;;;;;;;31.20;47.10;;;;;;4138206;28;20359;-58
2021/12/31 05:51:39;;;;;;;2.63;1.08;;;31.20;47.30;;;;;;4127575;28;21084;-57
2021/12/31 05:53:41;;;;;;;1.75;0.70;;;31.20;46.90;;;;;;4124724;28;20784;-55
2021/12/31 05:55:43;;;;;;;1.57;0.63;;;31.30;47.00;;;;;;4134385;28;20052;-58
2021/12/31 05:57:46;;;;;;;2.90;0.90;;;31.30;47.00;;;;;;4134118;28;20057;-59
2021/12/31 05:59:48;;;;;;;1.67;0.80;;;31.40;47.10;;;;;;4124647;28;20128;-51
2021/12/31 06:01:50;;;;;;;2.77;0.97;;;31.40;46.70;;;;;;4126842;28;20305;-57
2021/12/31 06:03:52;;;;;;;3.22;1.10;;;31.50;46.70;;;;;;4135543;28;20045;-59
2021/12/31 06:05:54;;;;;;;1.55;0.70;;;31.60;46.60;;;;;;4135707;28;20081;-60
2021/12/31 06:07:57;;;;;;;3.00;1.00;;;31.60;46.60;;;;;;4128492;28;20045;-58
2021/12/31 06:09:59;;;;;;;3.03;1.00;;;31.60;46.30;;;;;;4158993;28;20135;-57
2021/12/31 06:12:02;;;;;;;1.73;0.85;;;31.70;45.70;;;;;;4136483;28;20515;-58
2021/12/31 06:14:05;;;;;;;3.45;0.80;;;31.70;46.10;;;;;;4134068;28;20450;-59
2021/12/31 06:16:07;;;;;;;2.15;0.80;;;31.80;46.10;;;;;;4125921;28;20574;-58
2021/12/31 06:18:10;;;;;;;2.33;1.10;;;31.80;46.20;;;;;;4130115;28;20060;-57
2021/12/31 06:20:13;;;;;;;4.97;0.90;;;31.90;46.30;;;;;;4137135;28;20059;-58
2021/12/31 06:22:15;;;;;;;4.07;0.75;;;31.90;47.00;;;;;;4137161;28;20084;-55
2021/12/31 06:24:17;;;;;;;2.38;0.90;;;31.90;47.10;;;;;;4128707;28;20164;-58
2021/12/31 06:26:19;;;;;;;1.90;0.85;;;32.00;46.40;;;;;;4132848;28;20071;-59
2021/12/31 06:28:21;;;;;;;2.13;0.95;;;32.10;46.30;;;;;;4135916;28;20068;-59
2021/12/31 06:30:23;;;;;;;3.13;0.90;;;32.10;46.40;;;;;;4138377;28;20747;-62
2021/12/31 06:32:26;;;;;;;2.15;1.15;;;32.10;46.50;;;;;;4126219;28;20489;-63
2021/12/31 06:34:28;;;;;;;2.17;0.70;;;32.20;46.40;;;;;;4134281;28;20052;-60
2021/12/31 06:36:30;;;;;;;3.17;0.90;;;32.20;46.20;;;;;;4142008;28;20050;-59
2021/12/31 06:38:32;;;;;;;2.55;1.02;;;32.20;46.20;;;;;;4132949;28;20049;-61
2021/12/31 06:40:36;;;;;;;3.72;1.20;;;32.30;46.30;;;;;;4130733;28;20036;-63
2021/12/31 06:42:38;;;;;;;3.47;0.85;;;32.30;46.20;;;;;;4139668;28;20130;-61
2021/12/31 06:44:40;;;;;;;3.08;0.90;;;32.30;46.30;;;;;;4138245;28;20668;-60
2021/12/31 06:46:43;;;;;;;1.50;0.80;;;32.30;46.20;;;;;;4134589;28;20083;-59
2021/12/31 06:48:46;;;;;;;4.93;1.10;;;32.40;46.30;;;;;;4137397;28;20523;-60
2021/12/31 06:50:49;;;;;;;4.03;1.35;;;32.40;46.30;;;;;;4144638;28;20112;-59
2021/12/31 06:52:51;;;;;;;2.67;0.98;;;32.40;46.20;;;;;;4134141;28;20049;-60
2021/12/31 06:54:53;;;;;;;2.85;0.90;;;32.50;46.20;;;;;;4135263;28;20057;-59
2021/12/31 06:56:56;;;;;;;2.20;0.80;;;32.50;46.10;;;;;;4140137;28;20068;-59
2021/12/31 06:58:59;;;;;;;4.15;1.30;;;32.50;46.30;;;;;;4132228;28;20185;-59
2021/12/31 07:02:14;;;;;;;2.97;1.10;;;32.50;45.70;;;;;;4154667;27;20437;-64
2021/12/31 07:04:16;;;;;;;5.50;1.48;;;32.50;46.40;;;;;;4154584;28;20044;-59
2021/12/31 07:06:18;;;;;;;2.63;1.20;;;32.50;46.30;;;;;;4164387;28;20050;-59
2021/12/31 07:08:20;;;;;;;4.38;1.30;;;32.60;46.40;;;;;;4187610;27;20052;-60
2021/12/31 07:10:22;;;;;;;3.17;1.25;;;32.50;46.20;;;;;;4171726;28;20123;-60
2021/12/31 07:12:25;;;;;;;3.67;1.20;;;32.50;46.30;;;;;;4158975;28;20076;-60
2021/12/31 07:14:27;;;;;;;1.90;1.10;;;32.50;46.40;;;;;;4159105;28;20719;-59
2021/12/31 07:16:30;;;;;;;1.88;1.08;;;32.60;46.40;;;;;;4153198;28;20052;-60
2021/12/31 07:18:32;;;;;;;5.88;1.42;;;32.60;46.30;;;;;;4156803;28;20059;-59
2021/12/31 07:20:34;;;;;;;3.28;1.15;;;32.50;46.30;;;;;;4158043;28;20965;-59
2021/12/31 07:22:38;;;;;;;3.47;1.05;;;32.60;46.40;;;;;;4135897;28;20049;-59
2021/12/31 07:24:41;;;;;;;2.33;1.13;;;32.60;46.40;;;;;;4156478;28;20124;-59
2021/12/31 07:26:43;;;;;;;3.55;1.13;;;32.60;46.40;;;;;;4155911;28;20509;-59
2021/12/31 07:28:45;;;;;;;;;;;32.50;46.30;;;;;;4141210;28;20045;-59
2021/12/31 07:30:48;;;;;;;4.45;1.25;;;32.50;46.40;;;;;;4141580;28;20388;-59
2021/12/31 07:32:50;;;;;;;3.97;1.48;;;32.50;46.00;;;;;;4143116;28;20052;-60
2021/12/31 07:34:53;;;;;;;4.28;1.40;;;32.50;46.10;;;;;;4145454;28;20190;-60
2021/12/31 07:36:55;;;;;;;3.22;1.23;;;32.40;46.00;;;;;;4137429;28;20066;-59
2021/12/31 07:39:01;;;;;;;3.97;1.27;;;32.40;46.00;;;;;;4140154;28;20056;-61
2021/12/31 07:41:05;;;;;;;3.55;1.30;;;32.40;46.20;;;;;;4144202;28;20056;-61
2021/12/31 07:43:08;;;;;;;5.82;1.33;;;32.30;46.20;;;;;;4145229;28;22270;-60
2021/12/31 07:45:10;;;;;;;3.00;1.52;;;32.30;46.20;;;;;;4137318;28;20135;-60
2021/12/31 07:47:13;;;;;;;6.57;1.23;;;32.20;46.40;;;;;;4136531;28;20040;-60
2021/12/31 07:49:15;;;;;;;3.25;1.25;;;32.20;46.50;;;;;;4143493;28;20448;-58
2021/12/31 07:51:18;;;;;;;3.25;1.17;;;32.20;46.10;;;;;;4135019;28;20075;-60
2021/12/31 07:53:20;;;;;;;;;;;32.10;46.60;;;;;;4135208;28;20076;-60
2021/12/31 07:55:23;;;;;;;3.30;1.13;;;32.10;46.70;;;;;;4148603;28;19936;-60
2021/12/31 07:57:25;;;;;;;3.53;1.15;;;32.10;46.70;;;;;;4140827;28;21009;-60
2021/12/31 07:59:27;;;;;;;2.85;1.15;;;32.00;46.70;;;;;;4167598;28;20074;-61
2021/12/31 08:01:30;;;;;;;2.35;1.38;;;32.00;46.60;;;;;;4140592;28;20066;-60
2021/12/31 08:03:35;;;;;;;3.45;1.45;;;32.00;46.50;;;;;;4144143;28;20498;-60
2021/12/31 08:05:37;;;;;;;2.50;1.33;;;32.00;46.30;;;;;;4137400;28;20461;-61
2021/12/31 08:07:39;;;;;;;5.82;1.17;;;31.90;46.40;;;;;;4136533;28;20127;-60
2021/12/31 08:09:42;;;;;;;2.70;1.38;;;31.80;46.40;;;;;;4127901;28;20132;-60
2021/12/31 08:11:44;;;;;;;3.58;1.20;;;31.80;46.40;;;;;;4139585;28;20106;-60
2021/12/31 08:13:47;;;;;;;1.60;0.80;;;31.80;46.60;;;;;;4125203;28;20048;-60
2021/12/31 08:15:49;;;;;;;4.78;1.30;;;31.80;46.80;;;;;;4131663;28;20044;-61
2021/12/31 08:17:52;;;;;;;4.22;1.90;;;31.70;46.80;;;;;;4131545;28;20056;-60
2021/12/31 08:19:55;;;;;;;4.05;1.63;;;31.70;46.90;;;;;;4126777;28;20053;-61
2021/12/31 08:21:57;;;;;;;5.57;1.77;;;31.60;46.80;;;;;;4128038;28;21679;-61
2021/12/31 08:23:59;;;;;;;3.75;1.95;;;31.60;47.10;;;;;;4135076;28;20041;-61
2021/12/31 08:26:02;;;;;;;3.25;1.58;;;31.60;47.20;;;;;;4157692;28;20167;-60
2021/12/31 08:28:05;;;;;;;4.28;1.48;;;31.50;47.30;;;;;;4126239;28;20061;-59
2021/12/31 08:30:08;;;;;;;3.65;1.23;;;31.50;47.40;;;;;;4131964;28;20103;-59
2021/12/31 08:32:10;;;;;;;4.53;1.42;;;31.50;47.50;;;;;;4129537;28;20044;-60
2021/12/31 08:34:13;;;;;;;3.90;1.33;;;31.40;48.00;;;;;;4124145;28;20045;-60
2021/12/31 08:36:15;;;;;;;1.67;0.95;;;31.40;47.70;;;;;;4131570;28;20067;-61
2021/12/31 08:38:17;;;;;;;4.05;1.52;;;31.40;47.80;;;;;;4131979;28;20059;-60
2021/12/31 08:40:20;;;;;;;2.97;1.23;;;31.30;48.00;;;;;;4128091;28;20728;-60
2021/12/31 08:42:22;;;;;;;2.45;1.23;;;31.30;48.00;;;;;;4124352;28;20356;-60
2021/12/31 08:44:24;;;;;;;3.28;1.40;;;31.30;48.10;;;;;;4134829;28;20053;-60
2021/12/31 08:46:27;;;;;;;2.80;1.15;;;31.30;48.30;;;;;;4123126;28;20045;-60
2021/12/31 08:48:29;;;;;;;3.08;0.90;;;31.20;48.30;;;;;;4129460;28;20080;-61
2021/12/31 08:50:32;;;;;;;3.83;1.57;;;31.20;48.40;;;;;;4134997;28;20475;-61
2021/12/31 08:52:35;;;;;;;2.47;1.23;;;31.20;48.50;;;;;;4131438;28;20045;-61
2021/12/31 08:54:37;;;;;;;3.70;1.20;;;31.10;48.60;;;;;;4125733;28;20056;-61
2021/12/31 08:56:40;;;;;;;3.35;1.40;;;31.10;48.60;;;;;;4130175;28;20041;-62
2021/12/31 08:58:42;;;;;;;2.67;1.17;;;31.10;48.70;;;;;;4134634;28;20361;-60
2021/12/31 09:00:44;;;;;;;3.67;1.48;;;31.10;48.70;;;;;;4125260;28;20418;-60
2021/12/31 09:02:49;;;;;;;3.38;1.25;;;31.00;48.70;;;;;;4113633;28;20057;-61
2021/12/31 09:04:52;;;;;;;2.55;1.13;;;31.00;48.70;;;;;;4113315;28;20620;-61
2021/12/31 09:06:54;;;;;;;2.30;0.85;;;31.00;49.00;;;;;;4130169;28;22146;-61
2021/12/31 09:08:56;;;;;;;3.38;0.88;;;30.90;49.00;;;;;;4126285;28;20052;-60
2021/12/31 09:10:59;;;;;;;2.95;1.17;;;30.90;49.00;;;;;;4126889;28;20088;-61
2021/12/31 09:13:01;;;;;;;4.18;1.10;;;30.90;49.10;;;;;;4134589;28;20057;-61
2021/12/31 09:15:04;;;;;;;3.90;1.60;;;30.90;49.30;;;;;;4123986;28;20108;-61
2021/12/31 09:17:06;;;;;;;3.42;0.90;;;30.80;49.30;;;;;;4126035;28;20057;-61
2021/12/31 09:19:08;;;;;;;3.42;1.00;;;30.80;49.60;;;;;;4137166;28;20417;-60
2021/12/31 09:21:11;;;;;;;3.13;1.20;;;30.80;49.50;;;;;;4127727;28;20218;-60
2021/12/31 09:23:13;;;;;;;6.90;1.95;;;30.80;49.60;;;;;;4131298;28;20049;-60
2021/12/31 09:25:16;;;;;;;2.28;1.02;;;30.80;49.50;;;;;;4138150;28;20541;-61
2021/12/31 09:27:18;;;;;;;2.22;1.02;;;30.80;49.70;;;;;;4133768;28;20999;-60
2021/12/31 09:29:22;;;;;;;2.47;1.07;;;30.70;49.60;;;;;;4130745;28;20261;-60
2021/12/31 09:31:24;;;;;;;5.38;1.30;;;30.70;49.60;;;;;;4112884;28;20454;-61
2021/12/31 09:33:26;;;;;;;2.90;1.10;;;30.70;49.70;;;;;;4138448;28;20068;-60
2021/12/31 09:35:28;;;;;;;3.53;1.23;;;30.70;49.60;;;;;;4128249;28;20068;-61
2021/12/31 09:37:31;;;;;;;1.90;1.02;;;30.60;49.50;;;;;;4129978;28;20040;-61
2021/12/31 09:39:33;;;;;;;2.45;1.17;;;30.60;49.60;;;;;;4137075;28;20049;-60
2021/12/31 09:41:35;;;;;;;3.07;1.10;;;30.60;49.70;;;;;;4126678;28;20162;-60
2021/12/31 09:43:44;;;;;;;2.13;0.90;;;30.60;49.70;;;;;;4126162;28;20312;-61
2021/12/31 09:45:52;;;;;;;2.28;1.13;;;30.60;49.40;;;;;;4126111;28;23860;-61
2021/12/31 09:47:58;;;;;;;2.25;1.13;;;30.50;48.60;;;;;;4131605;28;20060;-62
2021/12/31 09:50:00;;;;;;;1.40;0.65;;;30.40;48.50;;;;;;4135329;28;20053;-60
2021/12/31 09:52:03;;;;;;;1.63;1.03;;;30.30;47.20;;;;;;4125264;28;20057;-60
2021/12/31 09:54:05;;;;;;;1.27;0.80;;;30.20;46.70;;;;;;4127086;28;20057;-61
2021/12/31 09:56:08;;;;;;;1.40;0.83;;;30.10;46.50;;;;;;4137986;28;20044;-60
2021/12/31 09:58:11;;;;;;;1.38;0.70;;;29.90;46.10;;;;;;4131630;28;20053;-61
2021/12/31 10:02:15;;;;;;;1.40;0.80;;;29.80;45.30;;;;;;4182105;27;20847;-61
2021/12/31 10:04:17;;;;;;;1.25;0.82;;;29.60;45.70;;;;;;4181456;28;21034;-60
2021/12/31 10:06:19;;;;;;;0.65;0.65;;;29.50;45.50;;;;;;4175269;28;20497;-60
2021/12/31 10:08:23;;;;;;;0.60;0.50;;;29.40;45.40;;;;;;4174562;28;20071;-61
2021/12/31 10:10:26;;;;;;;0.90;0.68;;;29.30;45.40;;;;;;4185529;28;20059;-60
2021/12/31 10:12:42;;;;;;;;;;;29.10;45.20;;;;;;4172545;28;20048;-60
2021/12/31 10:14:44;;;;;;;1.15;0.80;;;29.00;45.10;;;;;;4183422;28;20002;-61
2021/12/31 10:16:47;;;;;;;1.20;0.80;;;28.90;45.20;;;;;;4173556;28;20047;-63
2021/12/31 10:18:49;;;;;;;0.90;0.73;;;28.80;45.00;;;;;;4178025;28;20052;-60
2021/12/31 10:20:52;;;;;;;2.13;1.25;;;28.60;44.90;;;;;;4164897;28;20873;-59
2021/12/31 10:23:13;;;;;;;1.95;1.10;;;28.50;44.70;;;;;;4159138;28;20139;-60
2021/12/31 10:25:30;;;;;;;2.08;1.30;;;28.30;44.70;;;;;;4184189;28;20098;-60
2021/12/31 10:27:32;;;;;;;1.55;1.13;;;28.20;44.70;;;;;;4167744;28;20044;-60
2021/12/31 10:29:34;;;;;;;2.67;1.40;;;28.00;44.90;;;;;;4158039;28;20367;-60
2021/12/31 10:31:46;;;;;;;3.38;1.52;;;27.90;45.60;;;;;;4158739;28;20967;-60
2021/12/31 10:33:50;;;;;;;1.73;1.08;;;27.90;46.40;;;;;;4157734;28;20054;-59
2021/12/31 10:35:52;;;;;;;2.80;1.45;;;27.90;47.00;;;;;;4164421;28;20148;-60
2021/12/31 10:38:02;;;;;;;2.33;1.33;;;27.90;47.30;;;;;;4166618;28;20045;-59
2021/12/31 10:40:05;;;;;;;2.40;1.05;;;27.90;47.90;;;;;;4163219;28;21618;-60
2021/12/31 10:42:09;;;;;;;2.15;1.35;;;28.00;48.30;;;;;;4159825;28;20094;-60
2021/12/31 10:44:11;;;;;;;3.25;1.60;;;28.00;49.00;;;;;;4159706;28;20277;-60
2021/12/31 10:46:16;;;;;;;1.80;1.25;;;28.00;49.10;;;;;;4167006;28;20523;-60
2021/12/31 10:48:18;;;;;;;3.83;1.40;;;28.00;49.40;;;;;;4159899;28;20040;-60
2021/12/31 10:50:20;;;;;;;2.13;1.42;;;28.00;49.50;;;;;;4159299;28;20059;-60